sensor_id;sensor_type;location;lat;lon;timestamp;pressure;altitude;pressure_sealevel;temperature;humidity
19553;BME280;9420;50.876;7.012;2022-11-20T00:00:51;100797.69;;;10.85;98.34
19553;BME280;9420;50.876;7.012;2022-11-20T00:03:18;100798.50;;;10.87;99.42
19553;BME280;9420;50.876;7.012;2022-11-20T00:05:46;100806.78;;;10.75;99.06
19553;BME280;9420;50.876;7.012;2022-11-20T00:08:13;100795.97;;;11.13;97.32
19553;BME280;9420;50.876;7.012;2022-11-20T00:10:40;100794.72;;;11.53;95.75
19553;BME280;9420;50.876;7.012;2022-11-20T00:13:08;100791.72;;;11.91;94.13
19553;BME280;9420;50.876;7.012;2022-11-20T00:15:36;100786.53;;;11.88;92.27
19553;BME280;9420;50.876;7.012;2022-11-20T00:18:03;100789.16;;;12.14;91.57
19553;BME280;9420;50.876;7.012;2022-11-20T00:20:30;100785.69;;;11.87;92.47
19553;BME280;9420;50.876;7.012;2022-11-20T00:22:57;100781.31;;;11.33;93.39
19553;BME280;9420;50.876;7.012;2022-11-20T00:25:24;100783.75;;;11.65;94.15
19553;BME280;9420;50.876;7.012;2022-11-20T00:27:51;100792.13;;;11.51;93.45
19553;BME280;9420;50.876;7.012;2022-11-20T00:30:19;100799.31;;;11.74;93.70
19553;BME280;9420;50.876;7.012;2022-11-20T00:32:47;100793.91;;;11.51;92.91
19553;BME280;9420;50.876;7.012;2022-11-20T00:35:15;100804.53;;;11.77;93.11
19553;BME280;9420;50.876;7.012;2022-11-20T00:37:42;100793.03;;;12.04;92.90
19553;BME280;9420;50.876;7.012;2022-11-20T00:40:10;100793.56;;;11.89;93.15
19553;BME280;9420;50.876;7.012;2022-11-20T00:42:37;100789.97;;;11.90;92.54
19553;BME280;9420;50.876;7.012;2022-11-20T00:45:05;100778.13;;;11.77;92.85
19553;BME280;9420;50.876;7.012;2022-11-20T00:47:33;100781.72;;;11.47;93.00
19553;BME280;9420;50.876;7.012;2022-11-20T00:50:01;100774.63;;;11.49;94.00
19553;BME280;9420;50.876;7.012;2022-11-20T00:52:29;100779.50;;;11.35;93.69
19553;BME280;9420;50.876;7.012;2022-11-20T00:54:56;100787.06;;;11.17;93.51
19553;BME280;9420;50.876;7.012;2022-11-20T00:57:23;100778.72;;;11.31;93.01
19553;BME280;9420;50.876;7.012;2022-11-20T00:59:50;100770.66;;;11.36;93.72
19553;BME280;9420;50.876;7.012;2022-11-20T01:02:17;100782.53;;;11.21;93.75
19553;BME280;9420;50.876;7.012;2022-11-20T01:04:44;100779.56;;;11.32;93.73
19553;BME280;9420;50.876;7.012;2022-11-20T01:07:13;100793.69;;;11.31;93.07
19553;BME280;9420;50.876;7.012;2022-11-20T01:09:40;100788.03;;;11.43;94.78
19553;BME280;9420;50.876;7.012;2022-11-20T01:12:07;100790.22;;;11.29;93.18
19553;BME280;9420;50.876;7.012;2022-11-20T01:14:34;100794.84;;;11.20;91.95
19553;BME280;9420;50.876;7.012;2022-11-20T01:17:01;100784.50;;;11.14;92.66
19553;BME280;9420;50.876;7.012;2022-11-20T01:19:28;100794.81;;;10.94;93.55
19553;BME280;9420;50.876;7.012;2022-11-20T01:21:55;100787.34;;;11.08;92.79
19553;BME280;9420;50.876;7.012;2022-11-20T01:24:24;100786.78;;;11.27;92.63
19553;BME280;9420;50.876;7.012;2022-11-20T01:26:51;100783.50;;;11.46;91.98
19553;BME280;9420;50.876;7.012;2022-11-20T01:29:21;100785.72;;;11.32;92.37
19553;BME280;9420;50.876;7.012;2022-11-20T01:31:50;100785.78;;;11.31;93.57
19553;BME280;9420;50.876;7.012;2022-11-20T01:34:20;100781.47;;;11.54;93.12
19553;BME280;9420;50.876;7.012;2022-11-20T01:36:48;100774.31;;;11.32;93.03
19553;BME280;9420;50.876;7.012;2022-11-20T01:39:18;100779.38;;;11.38;92.61
19553;BME280;9420;50.876;7.012;2022-11-20T01:41:48;100783.28;;;11.26;91.90
19553;BME280;9420;50.876;7.012;2022-11-20T01:44:55;100782.75;;;11.15;93.83
19553;BME280;9420;50.876;7.012;2022-11-20T01:47:32;100778.47;;;11.39;93.94
19553;BME280;9420;50.876;7.012;2022-11-20T01:50:09;100777.19;;;11.52;93.83
19553;BME280;9420;50.876;7.012;2022-11-20T01:52:42;100775.19;;;11.32;94.03
19553;BME280;9420;50.876;7.012;2022-11-20T01:55:18;100769.50;;;11.44;94.57
19553;BME280;9420;50.876;7.012;2022-11-20T01:57:49;100768.63;;;11.44;93.57
19553;BME280;9420;50.876;7.012;2022-11-20T02:00:19;100759.41;;;11.31;93.77
19553;BME280;9420;50.876;7.012;2022-11-20T02:02:51;100743.53;;;11.32;94.40
19553;BME280;9420;50.876;7.012;2022-11-20T02:05:27;100746.50;;;11.49;92.53
19553;BME280;9420;50.876;7.012;2022-11-20T02:07:57;100746.91;;;11.37;92.82
19553;BME280;9420;50.876;7.012;2022-11-20T02:10:27;100745.81;;;10.87;94.24
19553;BME280;9420;50.876;7.012;2022-11-20T02:12:57;100733.47;;;10.89;94.90
19553;BME280;9420;50.876;7.012;2022-11-20T02:15:42;100748.13;;;10.39;94.35
19553;BME280;9420;50.876;7.012;2022-11-20T02:18:11;100740.19;;;10.72;94.08
19553;BME280;9420;50.876;7.012;2022-11-20T02:20:44;100738.44;;;10.71;95.41
19553;BME280;9420;50.876;7.012;2022-11-20T02:23:16;100752.06;;;10.85;94.19
19553;BME280;9420;50.876;7.012;2022-11-20T02:25:48;100752.66;;;10.94;93.95
19553;BME280;9420;50.876;7.012;2022-11-20T02:28:17;100756.78;;;11.31;92.83
19553;BME280;9420;50.876;7.012;2022-11-20T02:30:44;100749.16;;;11.22;92.41
19553;BME280;9420;50.876;7.012;2022-11-20T02:33:12;100764.44;;;11.10;93.31
19553;BME280;9420;50.876;7.012;2022-11-20T02:35:43;100753.41;;;10.70;94.18
19553;BME280;9420;50.876;7.012;2022-11-20T02:38:11;100749.06;;;11.25;93.52
19553;BME280;9420;50.876;7.012;2022-11-20T02:40:40;100753.03;;;11.38;94.02
19553;BME280;9420;50.876;7.012;2022-11-20T02:43:09;100754.22;;;11.28;93.12
19553;BME280;9420;50.876;7.012;2022-11-20T02:45:36;100747.94;;;11.32;93.74
19553;BME280;9420;50.876;7.012;2022-11-20T02:48:05;100744.91;;;11.17;94.23
19553;BME280;9420;50.876;7.012;2022-11-20T02:50:36;100734.25;;;11.20;94.20
19553;BME280;9420;50.876;7.012;2022-11-20T02:53:04;100726.13;;;11.00;95.04
19553;BME280;9420;50.876;7.012;2022-11-20T02:55:31;100730.44;;;11.03;94.29
19553;BME280;9420;50.876;7.012;2022-11-20T02:57:58;100730.75;;;10.92;94.33
19553;BME280;9420;50.876;7.012;2022-11-20T03:00:27;100735.03;;;10.96;95.31
19553;BME280;9420;50.876;7.012;2022-11-20T03:02:54;100733.19;;;11.54;92.57
19553;BME280;9420;50.876;7.012;2022-11-20T03:05:21;100731.56;;;11.50;91.97
19553;BME280;9420;50.876;7.012;2022-11-20T03:07:48;100730.31;;;11.34;92.29
19553;BME280;9420;50.876;7.012;2022-11-20T03:10:15;100723.22;;;11.88;90.82
19553;BME280;9420;50.876;7.012;2022-11-20T03:12:43;100723.66;;;12.01;91.79
19553;BME280;9420;50.876;7.012;2022-11-20T03:15:11;100720.97;;;11.24;93.91
19553;BME280;9420;50.876;7.012;2022-11-20T03:17:40;100720.75;;;11.03;95.65
19553;BME280;9420;50.876;7.012;2022-11-20T03:20:09;100725.84;;;11.09;95.18
19553;BME280;9420;50.876;7.012;2022-11-20T03:22:36;100723.72;;;11.47;94.87
19553;BME280;9420;50.876;7.012;2022-11-20T03:25:04;100726.00;;;11.31;96.26
19553;BME280;9420;50.876;7.012;2022-11-20T03:27:33;100717.44;;;11.25;96.46
19553;BME280;9420;50.876;7.012;2022-11-20T03:30:01;100717.34;;;11.28;95.54
19553;BME280;9420;50.876;7.012;2022-11-20T03:32:28;100723.22;;;11.36;96.04
19553;BME280;9420;50.876;7.012;2022-11-20T03:34:57;100718.81;;;10.81;98.29
19553;BME280;9420;50.876;7.012;2022-11-20T03:37:24;100714.66;;;10.45;98.96
19553;BME280;9420;50.876;7.012;2022-11-20T03:39:51;100713.06;;;10.68;100.00
19553;BME280;9420;50.876;7.012;2022-11-20T03:42:18;100726.31;;;10.36;100.00
19553;BME280;9420;50.876;7.012;2022-11-20T03:45:09;100721.63;;;10.76;100.00
19553;BME280;9420;50.876;7.012;2022-11-20T03:47:36;100720.50;;;10.54;100.00
19553;BME280;9420;50.876;7.012;2022-11-20T03:50:06;100722.91;;;10.00;100.00
19553;BME280;9420;50.876;7.012;2022-11-20T03:52:33;100718.34;;;10.07;100.00
19553;BME280;9420;50.876;7.012;2022-11-20T03:55:00;100712.69;;;10.22;100.00
19553;BME280;9420;50.876;7.012;2022-11-20T03:57:27;100708.28;;;10.53;100.00
19553;BME280;9420;50.876;7.012;2022-11-20T03:59:55;100709.78;;;10.60;100.00
19553;BME280;9420;50.876;7.012;2022-11-20T04:02:22;100702.00;;;11.12;100.00
19553;BME280;9420;50.876;7.012;2022-11-20T04:04:49;100702.06;;;10.83;100.00
19553;BME280;9420;50.876;7.012;2022-11-20T04:07:17;100699.06;;;10.37;100.00
19553;BME280;9420;50.876;7.012;2022-11-20T04:09:44;100697.94;;;10.47;100.00
19553;BME280;9420;50.876;7.012;2022-11-20T04:12:12;100699.06;;;10.66;100.00
19553;BME280;9420;50.876;7.012;2022-11-20T04:14:39;100696.97;;;10.77;100.00
19553;BME280;9420;50.876;7.012;2022-11-20T04:17:06;100706.81;;;10.72;100.00
19553;BME280;9420;50.876;7.012;2022-11-20T04:19:33;100690.19;;;10.70;100.00
19553;BME280;9420;50.876;7.012;2022-11-20T04:22:00;100693.00;;;10.64;100.00
19553;BME280;9420;50.876;7.012;2022-11-20T04:24:29;100699.00;;;10.69;100.00
19553;BME280;9420;50.876;7.012;2022-11-20T04:26:56;100691.34;;;10.62;100.00
19553;BME280;9420;50.876;7.012;2022-11-20T04:29:23;100688.72;;;10.60;100.00
19553;BME280;9420;50.876;7.012;2022-11-20T04:31:50;100695.47;;;10.70;100.00
19553;BME280;9420;50.876;7.012;2022-11-20T04:34:17;100684.72;;;11.04;100.00
19553;BME280;9420;50.876;7.012;2022-11-20T04:36:44;100690.66;;;11.10;100.00
19553;BME280;9420;50.876;7.012;2022-11-20T04:39:13;100693.00;;;11.19;100.00
19553;BME280;9420;50.876;7.012;2022-11-20T04:41:42;100692.19;;;11.17;100.00
19553;BME280;9420;50.876;7.012;2022-11-20T04:44:10;100687.25;;;11.35;100.00
19553;BME280;9420;50.876;7.012;2022-11-20T04:46:39;100682.16;;;11.55;100.00
19553;BME280;9420;50.876;7.012;2022-11-20T04:49:07;100684.22;;;11.19;100.00
19553;BME280;9420;50.876;7.012;2022-11-20T04:51:35;100694.97;;;11.13;100.00
19553;BME280;9420;50.876;7.012;2022-11-20T04:54:02;100687.75;;;11.19;100.00
19553;BME280;9420;50.876;7.012;2022-11-20T04:56:29;100693.00;;;10.35;100.00
19553;BME280;9420;50.876;7.012;2022-11-20T04:59:02;100700.53;;;10.18;100.00
19553;BME280;9420;50.876;7.012;2022-11-20T05:01:30;100713.09;;;10.07;100.00
19553;BME280;9420;50.876;7.012;2022-11-20T05:03:58;100710.63;;;9.99;100.00
19553;BME280;9420;50.876;7.012;2022-11-20T05:06:25;100709.50;;;10.11;100.00
19553;BME280;9420;50.876;7.012;2022-11-20T05:08:52;100712.41;;;10.31;100.00
19553;BME280;9420;50.876;7.012;2022-11-20T05:11:21;100713.16;;;10.65;100.00
19553;BME280;9420;50.876;7.012;2022-11-20T05:13:49;100710.47;;;10.67;100.00
19553;BME280;9420;50.876;7.012;2022-11-20T05:16:19;100714.16;;;10.90;100.00
19553;BME280;9420;50.876;7.012;2022-11-20T05:18:47;100709.91;;;11.12;100.00
19553;BME280;9420;50.876;7.012;2022-11-20T05:21:15;100706.09;;;10.95;100.00
19553;BME280;9420;50.876;7.012;2022-11-20T05:23:44;100705.16;;;10.97;100.00
19553;BME280;9420;50.876;7.012;2022-11-20T05:26:14;100707.81;;;11.24;100.00
19553;BME280;9420;50.876;7.012;2022-11-20T05:28:42;100702.72;;;11.17;100.00
19553;BME280;9420;50.876;7.012;2022-11-20T05:31:13;100700.63;;;11.29;100.00
19553;BME280;9420;50.876;7.012;2022-11-20T05:33:43;100700.09;;;11.17;100.00
19553;BME280;9420;50.876;7.012;2022-11-20T05:36:13;100706.94;;;11.23;100.00
19553;BME280;9420;50.876;7.012;2022-11-20T05:38:42;100703.41;;;11.24;100.00
19553;BME280;9420;50.876;7.012;2022-11-20T05:41:12;100703.09;;;11.33;100.00
19553;BME280;9420;50.876;7.012;2022-11-20T05:43:41;100713.06;;;11.24;100.00
19553;BME280;9420;50.876;7.012;2022-11-20T05:46:11;100709.09;;;11.10;100.00
19553;BME280;9420;50.876;7.012;2022-11-20T05:48:42;100710.13;;;11.06;100.00
19553;BME280;9420;50.876;7.012;2022-11-20T05:51:13;100705.22;;;11.22;100.00
19553;BME280;9420;50.876;7.012;2022-11-20T05:53:40;100702.19;;;11.08;100.00
19553;BME280;9420;50.876;7.012;2022-11-20T05:56:10;100707.78;;;10.97;100.00
19553;BME280;9420;50.876;7.012;2022-11-20T05:58:39;100710.22;;;11.03;100.00
19553;BME280;9420;50.876;7.012;2022-11-20T06:01:08;100705.63;;;11.10;100.00
19553;BME280;9420;50.876;7.012;2022-11-20T06:03:37;100704.44;;;11.18;100.00
19553;BME280;9420;50.876;7.012;2022-11-20T06:06:06;100704.72;;;11.37;100.00
19553;BME280;9420;50.876;7.012;2022-11-20T06:08:34;100700.41;;;11.35;100.00
19553;BME280;9420;50.876;7.012;2022-11-20T06:11:06;100710.13;;;11.06;100.00
19553;BME280;9420;50.876;7.012;2022-11-20T06:13:34;100700.50;;;11.32;100.00
19553;BME280;9420;50.876;7.012;2022-11-20T06:16:03;100705.19;;;11.50;100.00
19553;BME280;9420;50.876;7.012;2022-11-20T06:18:30;100702.63;;;11.47;100.00
19553;BME280;9420;50.876;7.012;2022-11-20T06:21:04;100697.66;;;11.38;100.00
19553;BME280;9420;50.876;7.012;2022-11-20T06:23:34;100697.34;;;11.20;100.00
19553;BME280;9420;50.876;7.012;2022-11-20T06:26:03;100700.16;;;11.16;100.00
19553;BME280;9420;50.876;7.012;2022-11-20T06:28:31;100699.16;;;11.18;100.00
19553;BME280;9420;50.876;7.012;2022-11-20T06:31:00;100697.16;;;11.53;100.00
19553;BME280;9420;50.876;7.012;2022-11-20T06:33:28;100700.97;;;11.44;100.00
19553;BME280;9420;50.876;7.012;2022-11-20T06:35:57;100698.38;;;11.43;100.00
19553;BME280;9420;50.876;7.012;2022-11-20T06:38:24;100698.81;;;11.31;100.00
19553;BME280;9420;50.876;7.012;2022-11-20T06:40:53;100695.22;;;11.32;100.00
19553;BME280;9420;50.876;7.012;2022-11-20T06:43:24;100700.09;;;11.17;100.00
19553;BME280;9420;50.876;7.012;2022-11-20T06:45:52;100715.22;;;10.85;100.00
19553;BME280;9420;50.876;7.012;2022-11-20T06:48:20;100708.69;;;10.96;100.00
19553;BME280;9420;50.876;7.012;2022-11-20T06:50:47;100724.75;;;10.87;100.00
19553;BME280;9420;50.876;7.012;2022-11-20T06:53:15;100724.88;;;10.84;100.00
19553;BME280;9420;50.876;7.012;2022-11-20T06:55:43;100725.13;;;10.75;100.00
19553;BME280;9420;50.876;7.012;2022-11-20T06:58:12;100723.25;;;10.80;100.00
19553;BME280;9420;50.876;7.012;2022-11-20T07:00:40;100717.59;;;10.92;100.00
19553;BME280;9420;50.876;7.012;2022-11-20T07:03:10;100713.44;;;11.39;100.00
19553;BME280;9420;50.876;7.012;2022-11-20T07:05:38;100721.19;;;11.44;100.00
19553;BME280;9420;50.876;7.012;2022-11-20T07:08:06;100729.06;;;11.45;100.00
19553;BME280;9420;50.876;7.012;2022-11-20T07:10:34;100723.81;;;11.17;100.00
19553;BME280;9420;50.876;7.012;2022-11-20T07:13:02;100731.00;;;11.12;100.00
19553;BME280;9420;50.876;7.012;2022-11-20T07:15:30;100728.88;;;11.24;100.00
19553;BME280;9420;50.876;7.012;2022-11-20T07:17:59;100734.63;;;11.36;100.00
19553;BME280;9420;50.876;7.012;2022-11-20T07:20:26;100731.44;;;11.53;100.00
19553;BME280;9420;50.876;7.012;2022-11-20T07:22:54;100738.06;;;11.38;100.00
19553;BME280;9420;50.876;7.012;2022-11-20T07:25:21;100739.13;;;11.59;99.76
19553;BME280;9420;50.876;7.012;2022-11-20T07:27:49;100736.38;;;11.09;100.00
19553;BME280;9420;50.876;7.012;2022-11-20T07:30:16;100740.53;;;11.16;100.00
19553;BME280;9420;50.876;7.012;2022-11-20T07:32:50;100751.59;;;11.28;100.00
19553;BME280;9420;50.876;7.012;2022-11-20T07:35:18;100747.03;;;11.59;100.00
19553;BME280;9420;50.876;7.012;2022-11-20T07:37:46;100733.25;;;12.03;100.00
19553;BME280;9420;50.876;7.012;2022-11-20T07:40:15;100736.66;;;12.30;98.98
19553;BME280;9420;50.876;7.012;2022-11-20T07:42:48;100732.47;;;12.24;98.81
19553;BME280;9420;50.876;7.012;2022-11-20T07:45:15;100739.09;;;11.86;98.63
19553;BME280;9420;50.876;7.012;2022-11-20T07:47:42;100744.03;;;11.71;100.00
19553;BME280;9420;50.876;7.012;2022-11-20T07:50:12;100742.59;;;11.35;100.00
19553;BME280;9420;50.876;7.012;2022-11-20T07:52:39;100729.69;;;12.04;98.02
19553;BME280;9420;50.876;7.012;2022-11-20T07:55:08;100737.97;;;12.18;98.03
19553;BME280;9420;50.876;7.012;2022-11-20T07:57:36;100736.84;;;11.76;99.22
19553;BME280;9420;50.876;7.012;2022-11-20T08:00:05;100730.22;;;11.89;99.71
19553;BME280;9420;50.876;7.012;2022-11-20T08:02:36;100741.75;;;11.86;100.00
19553;BME280;9420;50.876;7.012;2022-11-20T08:05:05;100735.50;;;12.14;99.11
19553;BME280;9420;50.876;7.012;2022-11-20T08:07:37;100740.72;;;11.64;100.00
19553;BME280;9420;50.876;7.012;2022-11-20T08:10:06;100737.63;;;12.04;98.83
19553;BME280;9420;50.876;7.012;2022-11-20T08:12:33;100739.63;;;11.96;99.18
19553;BME280;9420;50.876;7.012;2022-11-20T08:15:18;100730.81;;;11.97;99.25
19553;BME280;9420;50.876;7.012;2022-11-20T08:17:45;100732.38;;;11.52;100.00
19553;BME280;9420;50.876;7.012;2022-11-20T08:20:12;100721.63;;;11.56;100.00
19553;BME280;9420;50.876;7.012;2022-11-20T08:22:41;100733.59;;;11.68;100.00
19553;BME280;9420;50.876;7.012;2022-11-20T08:25:08;100732.56;;;11.98;100.00
19553;BME280;9420;50.876;7.012;2022-11-20T08:27:35;100730.06;;;12.18;100.00
19553;BME280;9420;50.876;7.012;2022-11-20T08:30:03;100729.31;;;12.15;99.72
19553;BME280;9420;50.876;7.012;2022-11-20T08:32:30;100735.47;;;12.38;99.16
19553;BME280;9420;50.876;7.012;2022-11-20T08:34:57;100725.16;;;12.78;95.31
19553;BME280;9420;50.876;7.012;2022-11-20T08:37:24;100737.63;;;12.97;94.76
19553;BME280;9420;50.876;7.012;2022-11-20T08:39:53;100737.88;;;12.67;94.56
19553;BME280;9420;50.876;7.012;2022-11-20T08:42:22;100738.03;;;12.64;96.83
19553;BME280;9420;50.876;7.012;2022-11-20T08:44:49;100741.56;;;12.40;98.07
19553;BME280;9420;50.876;7.012;2022-11-20T08:47:16;100738.50;;;12.52;96.71
19553;BME280;9420;50.876;7.012;2022-11-20T08:49:43;100736.66;;;12.54;97.74
19553;BME280;9420;50.876;7.012;2022-11-20T08:52:10;100736.28;;;12.63;98.33
19553;BME280;9420;50.876;7.012;2022-11-20T08:54:38;100735.94;;;12.72;98.11
19553;BME280;9420;50.876;7.012;2022-11-20T08:57:06;100737.06;;;12.89;97.43
19553;BME280;9420;50.876;7.012;2022-11-20T08:59:33;100732.28;;;12.76;96.91
19553;BME280;9420;50.876;7.012;2022-11-20T09:02:00;100737.63;;;12.52;97.60
19553;BME280;9420;50.876;7.012;2022-11-20T09:04:29;100739.38;;;12.74;97.48
19553;BME280;9420;50.876;7.012;2022-11-20T09:06:56;100738.56;;;12.96;96.74
19553;BME280;9420;50.876;7.012;2022-11-20T09:09:23;100733.81;;;13.27;95.13
19553;BME280;9420;50.876;7.012;2022-11-20T09:11:50;100735.75;;;13.65;91.14
19553;BME280;9420;50.876;7.012;2022-11-20T09:14:19;100736.41;;;13.50;91.12
19553;BME280;9420;50.876;7.012;2022-11-20T09:16:47;100732.59;;;12.91;93.59
19553;BME280;9420;50.876;7.012;2022-11-20T09:19:14;100727.63;;;12.83;94.41
19553;BME280;9420;50.876;7.012;2022-11-20T09:21:41;100720.78;;;13.44;93.77
19553;BME280;9420;50.876;7.012;2022-11-20T09:24:08;100720.06;;;13.19;94.53
19553;BME280;9420;50.876;7.012;2022-11-20T09:26:36;100712.94;;;12.98;95.33
19553;BME280;9420;50.876;7.012;2022-11-20T09:29:03;100715.84;;;13.35;93.73
19553;BME280;9420;50.876;7.012;2022-11-20T09:31:31;100720.16;;;13.59;92.38
19553;BME280;9420;50.876;7.012;2022-11-20T09:33:58;100712.31;;;13.36;94.15
19553;BME280;9420;50.876;7.012;2022-11-20T09:36:25;100706.97;;;13.57;93.61
19553;BME280;9420;50.876;7.012;2022-11-20T09:38:52;100704.13;;;13.62;92.64
19553;BME280;9420;50.876;7.012;2022-11-20T09:44:44;100702.16;;;13.67;93.83
19553;BME280;9420;50.876;7.012;2022-11-20T09:47:28;100710.09;;;13.87;92.44
19553;BME280;9420;50.876;7.012;2022-11-20T09:50:18;100715.59;;;13.41;93.85
19553;BME280;9420;50.876;7.012;2022-11-20T09:53:02;100706.88;;;13.39;95.47
19553;BME280;9420;50.876;7.012;2022-11-20T09:55:32;100710.56;;;13.35;94.60
19553;BME280;9420;50.876;7.012;2022-11-20T09:58:06;100707.88;;;13.15;93.92
19553;BME280;9420;50.876;7.012;2022-11-20T10:00:37;100712.22;;;13.16;94.04
19553;BME280;9420;50.876;7.012;2022-11-20T10:03:16;100711.63;;;13.31;93.65
19553;BME280;9420;50.876;7.012;2022-11-20T10:05:47;100709.91;;;13.30;94.43
19553;BME280;9420;50.876;7.012;2022-11-20T10:08:19;100713.41;;;13.30;92.85
19553;BME280;9420;50.876;7.012;2022-11-20T10:10:54;100714.16;;;13.34;94.76
19553;BME280;9420;50.876;7.012;2022-11-20T10:13:44;100702.97;;;13.06;95.52
19553;BME280;9420;50.876;7.012;2022-11-20T10:16:28;100706.28;;;13.11;96.27
19553;BME280;9420;50.876;7.012;2022-11-20T10:19:19;100706.28;;;13.11;96.11
19553;BME280;9420;50.876;7.012;2022-11-20T10:22:03;100698.75;;;13.22;95.62
19553;BME280;9420;50.876;7.012;2022-11-20T10:24:53;100698.75;;;13.22;96.79
19553;BME280;9420;50.876;7.012;2022-11-20T10:27:52;100686.66;;;13.58;94.54
19553;BME280;9420;50.876;7.012;2022-11-20T10:30:23;100675.56;;;13.70;94.13
19553;BME280;9420;50.876;7.012;2022-11-20T10:32:57;100677.94;;;13.76;92.44
19553;BME280;9420;50.876;7.012;2022-11-20T10:35:35;100657.56;;;13.78;93.69
19553;BME280;9420;50.876;7.012;2022-11-20T10:38:12;100653.97;;;13.99;92.17
19553;BME280;9420;50.876;7.012;2022-11-20T10:40:46;100645.19;;;13.79;91.96
19553;BME280;9420;50.876;7.012;2022-11-20T10:43:19;100647.88;;;13.97;92.38
19553;BME280;9420;50.876;7.012;2022-11-20T10:45:55;100645.59;;;13.90;92.51
19553;BME280;9420;50.876;7.012;2022-11-20T10:48:26;100639.44;;;13.89;93.15
19553;BME280;9420;50.876;7.012;2022-11-20T10:51:11;100642.31;;;14.03;92.09
19553;BME280;9420;50.876;7.012;2022-11-20T10:54:07;100642.59;;;13.97;91.77
19553;BME280;9420;50.876;7.012;2022-11-20T10:56:47;100637.31;;;13.97;92.30
19553;BME280;9420;50.876;7.012;2022-11-20T10:59:59;100631.53;;;13.69;94.34
19553;BME280;9420;50.876;7.012;2022-11-20T11:02:35;100629.78;;;13.68;93.41
19553;BME280;9420;50.876;7.012;2022-11-20T11:05:33;100623.38;;;13.33;94.68
19553;BME280;9420;50.876;7.012;2022-11-20T11:08:10;100618.69;;;13.40;96.15
19553;BME280;9420;50.876;7.012;2022-11-20T11:10:46;100614.66;;;13.72;94.90
19553;BME280;9420;50.876;7.012;2022-11-20T11:13:21;100611.81;;;13.36;96.21
19553;BME280;9420;50.876;7.012;2022-11-20T11:15:48;100598.84;;;13.50;95.26
19553;BME280;9420;50.876;7.012;2022-11-20T11:18:25;100587.97;;;13.76;95.17
19553;BME280;9420;50.876;7.012;2022-11-20T11:20:54;100586.31;;;14.12;93.73
19553;BME280;9420;50.876;7.012;2022-11-20T11:23:35;100584.66;;;13.91;93.92
19553;BME280;9420;50.876;7.012;2022-11-20T11:26:05;100591.09;;;14.04;94.39
19553;BME280;9420;50.876;7.012;2022-11-20T11:28:33;100576.81;;;14.08;93.12
19553;BME280;9420;50.876;7.012;2022-11-20T11:31:01;100570.94;;;14.39;92.15
19553;BME280;9420;50.876;7.012;2022-11-20T11:33:31;100572.53;;;14.62;91.14
19553;BME280;9420;50.876;7.012;2022-11-20T11:36:01;100571.25;;;14.33;93.07
19553;BME280;9420;50.876;7.012;2022-11-20T11:38:35;100570.78;;;13.86;93.80
19553;BME280;9420;50.876;7.012;2022-11-20T11:41:05;100568.13;;;13.86;94.94
19553;BME280;9420;50.876;7.012;2022-11-20T11:43:35;100561.00;;;13.68;96.73
19553;BME280;9420;50.876;7.012;2022-11-20T11:46:31;100553.72;;;13.73;95.49
19553;BME280;9420;50.876;7.012;2022-11-20T11:49:01;100558.25;;;13.51;95.83
19553;BME280;9420;50.876;7.012;2022-11-20T11:51:36;100553.16;;;13.85;94.32
19553;BME280;9420;50.876;7.012;2022-11-20T11:54:22;100547.03;;;14.03;95.36
19553;BME280;9420;50.876;7.012;2022-11-20T11:56:51;100546.69;;;14.11;94.38
19553;BME280;9420;50.876;7.012;2022-11-20T11:59:29;100558.13;;;13.54;95.68
19553;BME280;9420;50.876;7.012;2022-11-20T12:02:15;100542.06;;;13.77;95.57
19553;BME280;9420;50.876;7.012;2022-11-20T12:04:53;100543.16;;;13.73;96.38
19553;BME280;9420;50.876;7.012;2022-11-20T12:07:37;100529.22;;;13.88;95.87
19553;BME280;9420;50.876;7.012;2022-11-20T12:10:19;100522.47;;;13.81;97.61
19553;BME280;9420;50.876;7.012;2022-11-20T12:12:54;100519.09;;;13.59;96.97
19553;BME280;9420;50.876;7.012;2022-11-20T12:15:29;100513.75;;;13.98;95.80
19553;BME280;9420;50.876;7.012;2022-11-20T12:17:56;100518.47;;;13.34;97.35
19553;BME280;9420;50.876;7.012;2022-11-20T12:20:29;100520.56;;;13.46;98.23
19553;BME280;9420;50.876;7.012;2022-11-20T12:23:05;100513.31;;;13.31;98.19
19553;BME280;9420;50.876;7.012;2022-11-20T12:25:38;100505.34;;;13.51;97.67
19553;BME280;9420;50.876;7.012;2022-11-20T12:28:30;100495.53;;;13.73;96.63
19553;BME280;9420;50.876;7.012;2022-11-20T12:31:28;100501.50;;;14.14;96.27
19553;BME280;9420;50.876;7.012;2022-11-20T12:34:15;100492.81;;;14.30;95.38
19553;BME280;9420;50.876;7.012;2022-11-20T12:49:00;100479.50;;;14.13;93.58
19553;BME280;9420;50.876;7.012;2022-11-20T12:52:06;100475.25;;;14.47;92.55
19553;BME280;9420;50.876;7.012;2022-11-20T12:55:21;100465.28;;;14.69;92.60
19553;BME280;9420;50.876;7.012;2022-11-20T13:08:28;100439.19;;;14.61;90.94
19553;BME280;9420;50.876;7.012;2022-11-20T13:11:05;100429.72;;;14.90;91.17
19553;BME280;9420;50.876;7.012;2022-11-20T13:13:56;100433.72;;;14.47;91.76
19553;BME280;9420;50.876;7.012;2022-11-20T13:16:32;100423.06;;;14.83;91.50
19553;BME280;9420;50.876;7.012;2022-11-20T13:19:03;100416.81;;;14.67;91.37
19553;BME280;9420;50.876;7.012;2022-11-20T13:21:38;100414.00;;;14.53;94.32
19553;BME280;9420;50.876;7.012;2022-11-20T13:24:20;100407.31;;;14.63;95.03
19553;BME280;9420;50.876;7.012;2022-11-20T13:27:01;100408.84;;;14.50;95.00
19553;BME280;9420;50.876;7.012;2022-11-20T13:29:29;100403.09;;;14.93;95.29
19553;BME280;9420;50.876;7.012;2022-11-20T13:32:05;100392.72;;;14.88;94.14
19553;BME280;9420;50.876;7.012;2022-11-20T13:34:34;100389.41;;;15.00;92.38
19553;BME280;9420;50.876;7.012;2022-11-20T13:37:02;100394.19;;;14.77;93.71
19553;BME280;9420;50.876;7.012;2022-11-20T13:39:34;100379.38;;;14.73;93.96
19553;BME280;9420;50.876;7.012;2022-11-20T13:42:18;100386.09;;;14.80;95.46
19553;BME280;9420;50.876;7.012;2022-11-20T13:44:54;100374.69;;;14.95;93.40